createdAt,value
2017-11-05T00:00:14.791Z,983.24
2017-11-05T00:01:14.780Z,983.21
2017-11-05T00:02:14.774Z,983.23
2017-11-05T00:03:14.769Z,983.30
2017-11-05T00:04:14.762Z,983.28
2017-11-05T00:05:14.760Z,983.25
2017-11-05T00:06:14.746Z,983.26
2017-11-05T00:07:15.451Z,983.28
2017-11-05T00:08:14.740Z,983.28
2017-11-05T00:09:14.748Z,983.27
2017-11-05T00:10:14.720Z,983.28
2017-11-05T00:11:14.715Z,983.23
2017-11-05T00:12:14.709Z,983.21
2017-11-05T00:13:14.701Z,983.25
2017-11-05T00:14:14.714Z,983.19
2017-11-05T00:15:14.687Z,983.20
2017-11-05T00:16:14.683Z,983.21
2017-11-05T00:17:14.674Z,983.20
2017-11-05T00:18:14.674Z,983.17
2017-11-05T00:19:14.662Z,983.13
2017-11-05T00:20:14.650Z,983.17
2017-11-05T00:21:14.652Z,983.15
2017-11-05T00:22:14.645Z,983.13
2017-11-05T00:23:22.288Z,983.06
2017-11-05T00:25:08.415Z,983.13
2017-11-05T00:26:08.370Z,983.06
2017-11-05T00:28:01.278Z,983.10
2017-11-05T00:29:01.241Z,983.05
2017-11-05T00:30:54.130Z,983.12
2017-11-05T00:31:54.112Z,983.06
2017-11-05T00:33:47.003Z,983.05
2017-11-05T00:34:46.976Z,983.02
2017-11-05T00:36:39.877Z,982.99
2017-11-05T00:37:39.865Z,983.00
2017-11-05T00:39:32.929Z,982.95
2017-11-05T00:40:32.751Z,982.95
2017-11-05T00:42:26.584Z,982.97
2017-11-05T00:43:25.622Z,983.01
2017-11-05T00:45:18.502Z,983.01
2017-11-05T00:46:18.487Z,983.07
2017-11-05T00:48:12.235Z,983.08
2017-11-05T00:49:12.319Z,983.10
2017-11-05T00:51:05.095Z,983.05
2017-11-05T00:52:05.074Z,983.04
2017-11-05T00:53:57.960Z,983.04
2017-11-05T00:54:57.938Z,983.06
2017-11-05T00:56:50.835Z,983.01
2017-11-05T00:57:50.820Z,983.03
2017-11-05T00:59:43.690Z,982.97
2017-11-05T01:00:43.681Z,982.91
2017-11-05T01:02:36.580Z,982.86
2017-11-05T01:03:36.539Z,982.84
2017-11-05T01:05:29.424Z,982.88
2017-11-05T01:06:29.404Z,982.82
2017-11-05T01:08:22.304Z,982.80
2017-11-05T01:09:22.291Z,982.77
2017-11-05T01:11:18.976Z,982.74
2017-11-05T01:12:16.140Z,982.76
2017-11-05T01:14:09.039Z,982.75
2017-11-05T01:15:09.013Z,982.74
2017-11-05T01:17:01.922Z,982.69
2017-11-05T01:18:01.884Z,982.70
2017-11-05T01:19:54.762Z,982.64
2017-11-05T01:20:54.756Z,982.66
2017-11-05T01:22:47.640Z,982.65
2017-11-05T01:23:47.645Z,982.62
2017-11-05T01:25:40.507Z,982.60
2017-11-05T01:26:40.494Z,982.59
2017-11-05T01:28:33.382Z,982.59
2017-11-05T01:29:33.352Z,982.57
2017-11-05T01:31:26.257Z,982.57
2017-11-05T01:32:26.236Z,982.56
2017-11-05T01:34:19.119Z,982.52
2017-11-05T01:35:19.096Z,982.50
2017-11-05T01:37:11.984Z,982.46
2017-11-05T01:38:11.964Z,982.44
2017-11-05T01:40:04.838Z,982.41
2017-11-05T01:41:04.826Z,982.38
2017-11-05T01:42:57.725Z,982.38
2017-11-05T01:43:57.704Z,982.36
2017-11-05T01:45:50.581Z,982.40
2017-11-05T01:46:50.566Z,982.39
2017-11-05T01:48:44.448Z,982.44
2017-11-05T01:49:44.423Z,982.44
2017-11-05T01:51:38.329Z,982.44
2017-11-05T01:52:38.282Z,982.47
2017-11-05T01:54:31.157Z,982.47
2017-11-05T01:55:31.145Z,982.53
2017-11-05T01:57:24.076Z,982.49
2017-11-05T01:58:24.051Z,982.51
2017-11-05T02:00:17.924Z,982.55
2017-11-05T02:01:17.909Z,982.57
2017-11-05T02:03:10.805Z,982.62
2017-11-05T02:04:10.783Z,982.62
2017-11-05T02:06:03.673Z,982.65
2017-11-05T02:07:03.660Z,982.61
2017-11-05T02:08:56.558Z,982.64
2017-11-05T02:09:56.531Z,982.60
2017-11-05T02:11:49.431Z,982.58
2017-11-05T02:12:49.399Z,982.55
2017-11-05T02:14:42.784Z,982.54
2017-11-05T02:15:42.772Z,982.55
2017-11-05T02:17:35.681Z,982.55
2017-11-05T02:18:35.642Z,982.51
2017-11-05T02:20:28.518Z,982.56
2017-11-05T02:21:28.512Z,982.57
2017-11-05T02:23:21.401Z,982.55
2017-11-05T02:24:21.455Z,982.54
2017-11-05T02:26:14.260Z,982.56
2017-11-05T02:27:14.260Z,982.57
2017-11-05T02:29:07.141Z,982.47
2017-11-05T02:30:07.119Z,982.49
2017-11-05T02:32:00.021Z,982.52
2017-11-05T02:32:59.991Z,982.48
2017-11-05T02:34:52.866Z,982.51
2017-11-05T02:35:52.855Z,982.48
2017-11-05T02:37:46.739Z,982.42
2017-11-05T02:38:46.711Z,982.47
2017-11-05T02:40:39.590Z,982.37
2017-11-05T02:41:39.581Z,982.43
2017-11-05T02:43:32.467Z,982.37
2017-11-05T02:44:32.446Z,982.41
2017-11-05T02:46:25.336Z,982.40
2017-11-05T02:47:25.321Z,982.39
2017-11-05T02:49:18.206Z,982.47
2017-11-05T02:50:18.190Z,982.38
2017-11-05T02:52:12.079Z,982.46
2017-11-05T02:53:12.052Z,982.44
2017-11-05T02:55:04.937Z,982.41
2017-11-05T02:56:04.924Z,982.43
2017-11-05T02:57:58.809Z,982.34
2017-11-05T02:58:58.785Z,982.38
2017-11-05T03:00:51.670Z,982.31
2017-11-05T03:01:51.656Z,982.30
2017-11-05T03:03:44.545Z,982.29
2017-11-05T03:04:44.522Z,982.29
2017-11-05T03:06:37.418Z,982.26
2017-11-05T03:07:37.392Z,982.25
2017-11-05T03:09:30.279Z,982.21
2017-11-05T03:10:30.261Z,982.21
2017-11-05T03:12:23.165Z,982.19
2017-11-05T03:13:23.141Z,982.16
2017-11-05T03:15:16.920Z,982.16
2017-11-05T03:16:16.886Z,982.17
2017-11-05T03:18:09.777Z,982.20
2017-11-05T03:19:09.755Z,982.22
2017-11-05T03:21:02.649Z,982.25
2017-11-05T03:22:02.630Z,982.23
2017-11-05T03:23:55.521Z,982.20
2017-11-05T03:24:55.497Z,982.20
2017-11-05T03:26:48.393Z,982.19
2017-11-05T03:27:48.364Z,982.20
2017-11-05T03:29:41.245Z,982.05
2017-11-05T03:30:41.231Z,982.00
2017-11-05T03:32:34.120Z,982.01
2017-11-05T06:57:39.207Z,981.58
2017-11-05T06:58:39.173Z,981.58
2017-11-05T07:00:32.059Z,981.67
2017-11-05T07:01:32.046Z,981.64
2017-11-05T07:03:24.932Z,981.64
2017-11-05T07:04:24.915Z,981.64
2017-11-05T07:06:17.801Z,981.60
2017-11-05T07:07:17.784Z,981.62
2017-11-05T07:09:10.676Z,981.57
2017-11-05T07:10:10.650Z,981.59
2017-11-05T07:12:03.538Z,981.59
2017-11-05T07:13:03.525Z,981.64
2017-11-05T07:14:56.935Z,981.62
2017-11-05T07:15:56.905Z,981.65
2017-11-05T07:16:56.900Z,981.66
2017-11-05T07:17:56.898Z,981.64
2017-11-05T07:18:56.889Z,981.64
2017-11-05T07:19:56.882Z,981.62
2017-11-05T07:20:56.877Z,981.63
2017-11-05T07:21:56.876Z,981.64
2017-11-05T07:22:56.874Z,981.61
2017-11-05T07:23:56.867Z,981.63
2017-11-05T07:24:56.857Z,981.61
2017-11-05T07:25:56.852Z,981.63
2017-11-05T07:26:56.848Z,981.59
2017-11-05T07:27:56.841Z,981.58
2017-11-05T07:28:56.839Z,981.61
2017-11-05T07:29:56.832Z,981.57
2017-11-05T07:30:56.831Z,981.56
2017-11-05T07:31:56.824Z,981.54
2017-11-05T07:32:56.814Z,981.51
2017-11-05T07:33:56.817Z,981.54
2017-11-05T07:34:56.821Z,981.55
2017-11-05T07:35:56.802Z,981.52
2017-11-05T07:36:56.800Z,981.59
2017-11-05T07:37:56.794Z,981.49
2017-11-05T07:38:56.791Z,981.52
2017-11-05T07:39:56.786Z,981.51
2017-11-05T07:40:56.788Z,981.49
2017-11-05T07:41:56.772Z,981.50
2017-11-05T07:42:56.767Z,981.51
2017-11-05T07:43:56.762Z,981.53
2017-11-05T07:44:56.759Z,981.50
2017-11-05T07:45:56.751Z,981.51
2017-11-05T07:46:56.745Z,981.53
2017-11-05T07:47:56.740Z,981.52
2017-11-05T07:48:56.738Z,981.49
2017-11-05T07:49:56.738Z,981.48
2017-11-05T07:50:56.731Z,981.46
2017-11-05T07:51:56.724Z,981.47
2017-11-05T07:52:56.720Z,981.45
2017-11-05T07:53:56.714Z,981.45
2017-11-05T07:54:56.703Z,981.43
2017-11-05T07:55:56.702Z,981.47
2017-11-05T07:56:56.695Z,981.45
2017-11-05T07:57:56.690Z,981.42
2017-11-05T07:58:56.687Z,981.38
2017-11-05T07:59:56.681Z,981.38
2017-11-05T08:00:56.683Z,981.38
2017-11-05T08:01:56.817Z,981.33
2017-11-05T08:02:56.668Z,981.37
2017-11-05T08:03:56.660Z,981.37
2017-11-05T08:04:56.658Z,981.32
2017-11-05T08:05:56.653Z,981.40
2017-11-05T08:06:56.647Z,981.41
2017-11-05T08:07:56.638Z,981.44
2017-11-05T08:08:56.633Z,981.44
2017-11-05T08:09:56.635Z,981.44
2017-11-05T08:10:56.625Z,981.46
2017-11-05T08:11:56.628Z,981.41
2017-11-05T08:12:56.616Z,981.42
2017-11-05T08:13:56.610Z,981.40
2017-11-05T08:14:56.602Z,981.38
2017-11-05T08:15:56.595Z,981.38
2017-11-05T08:16:56.595Z,981.35
2017-11-05T08:17:56.588Z,981.32
2017-11-05T08:18:56.593Z,981.34
2017-11-05T08:19:56.580Z,981.33
2017-11-05T08:20:56.576Z,981.33
2017-11-05T08:21:56.571Z,981.33
2017-11-05T08:22:56.567Z,981.36
2017-11-05T08:23:56.563Z,981.37
2017-11-05T08:24:56.554Z,981.39
2017-11-05T08:25:56.548Z,981.39
2017-11-05T08:26:56.545Z,981.38
2017-11-05T08:27:56.541Z,981.44
2017-11-05T08:28:56.535Z,981.46
2017-11-05T08:29:56.532Z,981.45
2017-11-05T08:30:56.526Z,981.49
2017-11-05T08:31:56.519Z,981.48
2017-11-05T08:32:56.514Z,981.45
2017-11-05T08:33:56.510Z,981.47
2017-11-05T08:34:56.509Z,981.49
2017-11-05T08:35:56.500Z,981.52
2017-11-05T08:36:56.500Z,981.48
2017-11-05T08:37:56.492Z,981.47
2017-11-05T08:38:56.499Z,981.50
2017-11-05T08:39:56.483Z,981.51
2017-11-05T08:40:56.478Z,981.51
2017-11-05T08:41:56.470Z,981.50
2017-11-05T08:42:56.463Z,981.53
2017-11-05T08:43:56.463Z,981.53
2017-11-05T08:44:56.456Z,981.45
2017-11-05T08:45:56.452Z,981.50
2017-11-05T08:46:56.445Z,981.51
2017-11-05T08:47:56.441Z,981.52
2017-11-05T08:48:56.439Z,981.53
2017-11-05T08:49:56.435Z,981.55
2017-11-05T08:50:56.427Z,981.51
2017-11-05T08:51:56.422Z,981.54
2017-11-05T08:52:56.418Z,981.51
2017-11-05T08:53:56.413Z,981.48
2017-11-05T08:54:56.407Z,981.50
2017-11-05T08:55:56.405Z,981.52
2017-11-05T08:56:56.405Z,981.49
2017-11-05T08:57:56.396Z,981.47
2017-11-05T08:58:56.390Z,981.46
2017-11-05T08:59:56.383Z,981.47
2017-11-05T09:00:56.376Z,981.52
2017-11-05T09:01:56.369Z,981.55
2017-11-05T09:02:56.366Z,981.53
2017-11-05T09:03:56.362Z,981.50
2017-11-05T09:04:56.357Z,981.59
2017-11-05T09:05:56.359Z,981.59
2017-11-05T09:06:56.346Z,981.63
2017-11-05T09:07:56.343Z,981.68
2017-11-05T09:08:56.340Z,981.70
2017-11-05T09:09:56.331Z,981.72
2017-11-05T09:10:56.329Z,981.75
2017-11-05T09:11:56.322Z,981.65
2017-11-05T09:12:56.319Z,981.58
2017-11-05T09:13:56.314Z,981.64
2017-11-05T09:14:56.305Z,981.62
2017-11-05T09:15:56.302Z,981.78
2017-11-05T09:16:56.301Z,981.95
2017-11-05T09:17:56.295Z,982.02
2017-11-05T09:18:56.289Z,982.04
2017-11-05T09:19:56.284Z,982.09
2017-11-05T09:20:56.277Z,982.09
2017-11-05T09:21:56.273Z,982.13
2017-11-05T09:22:56.270Z,982.24
2017-11-05T09:23:56.264Z,982.24
2017-11-05T09:24:56.265Z,982.29
2017-11-05T09:25:56.253Z,982.37
2017-11-05T09:26:56.247Z,982.40
2017-11-05T09:27:56.242Z,982.42
2017-11-05T09:28:56.248Z,982.50
2017-11-05T09:29:56.236Z,982.68
2017-11-05T09:30:56.230Z,982.63
2017-11-05T09:31:56.224Z,982.65
2017-11-05T09:32:56.224Z,982.69
2017-11-05T09:33:56.209Z,982.75
2017-11-05T09:34:56.221Z,982.82
2017-11-05T09:35:56.209Z,982.82
2017-11-05T09:36:56.202Z,982.87
2017-11-05T09:37:56.197Z,982.90
2017-11-05T09:38:56.190Z,982.98
2017-11-05T09:39:56.182Z,983.06
2017-11-05T09:40:56.200Z,983.06
2017-11-05T09:41:56.255Z,983.07
2017-11-05T09:42:56.169Z,983.14
2017-11-05T09:43:56.170Z,983.16
2017-11-05T09:44:56.160Z,983.18
2017-11-05T09:45:56.186Z,983.24
2017-11-05T09:46:56.152Z,983.27
2017-11-05T09:47:56.147Z,983.26
2017-11-05T09:48:56.142Z,983.32
2017-11-05T09:49:56.132Z,983.33
2017-11-05T09:50:56.133Z,983.37
2017-11-05T09:51:56.129Z,983.33
2017-11-05T09:52:56.123Z,983.34
2017-11-05T09:53:56.174Z,983.43
2017-11-05T09:54:56.120Z,983.47
2017-11-05T09:55:56.150Z,983.51
2017-11-05T09:56:56.104Z,983.53
2017-11-05T09:57:56.096Z,983.55
2017-11-05T09:58:56.086Z,983.54
2017-11-05T09:59:56.084Z,983.61
2017-11-05T10:00:56.123Z,983.60
2017-11-05T10:01:56.076Z,983.66
2017-11-05T10:02:56.087Z,983.68
2017-11-05T10:03:56.066Z,983.74
2017-11-05T10:04:56.065Z,983.69
2017-11-05T10:05:56.057Z,983.75
2017-11-05T10:06:56.052Z,983.74
2017-11-05T10:07:56.047Z,983.76
2017-11-05T10:08:56.042Z,983.81
2017-11-05T10:09:56.035Z,983.85
2017-11-05T10:10:56.030Z,983.80
2017-11-05T10:11:56.026Z,983.81
2017-11-05T10:12:56.029Z,983.80
2017-11-05T10:13:58.746Z,983.83
2017-11-05T10:14:56.113Z,983.86
2017-11-05T10:15:56.043Z,983.87
2017-11-05T10:16:56.044Z,983.91
2017-11-05T10:17:56.039Z,983.93
2017-11-05T10:18:56.007Z,983.94
2017-11-05T10:19:55.990Z,983.98
2017-11-05T10:20:55.992Z,984.05
2017-11-05T10:21:55.983Z,984.02
2017-11-05T10:22:55.971Z,984.10
2017-11-05T10:23:56.623Z,984.07
2017-11-05T10:24:55.958Z,984.08
2017-11-05T10:25:55.953Z,984.12
2017-11-05T10:26:55.948Z,984.11
2017-11-05T10:27:55.939Z,984.15
2017-11-05T10:28:55.938Z,984.16
2017-11-05T10:29:55.941Z,984.18
2017-11-05T10:30:55.934Z,984.20
2017-11-05T10:31:55.915Z,984.20
2017-11-05T10:32:55.917Z,984.20
2017-11-05T10:33:55.910Z,984.23
2017-11-05T10:34:55.902Z,984.22
2017-11-05T10:35:55.898Z,984.29
2017-11-05T10:36:55.886Z,984.26
2017-11-05T10:37:55.887Z,984.30
2017-11-05T10:38:55.888Z,984.28
2017-11-05T10:39:55.880Z,984.30
2017-11-05T10:40:55.868Z,984.33
2017-11-05T10:41:55.865Z,984.35
2017-11-05T10:42:55.854Z,984.34
2017-11-05T10:43:55.860Z,984.33
2017-11-05T10:44:55.851Z,984.33
2017-11-05T10:45:55.855Z,984.36
2017-11-05T10:46:55.871Z,984.39
2017-11-05T10:47:55.825Z,984.41
2017-11-05T10:48:55.824Z,984.45
2017-11-05T10:49:55.818Z,984.46
2017-11-05T10:50:55.802Z,984.51
2017-11-05T10:51:55.805Z,984.49
2017-11-05T10:52:55.928Z,984.55
2017-11-05T10:53:55.796Z,984.54
2017-11-05T10:54:55.795Z,984.58
2017-11-05T10:55:55.773Z,984.59
2017-11-05T10:56:55.775Z,984.63
2017-11-05T10:57:55.768Z,984.63
2017-11-05T10:58:55.758Z,984.68
2017-11-05T10:59:55.758Z,984.71
2017-11-05T11:00:55.766Z,984.74
2017-11-05T11:01:55.747Z,984.73
2017-11-05T11:02:55.742Z,984.77
2017-11-05T11:03:55.749Z,984.72
2017-11-05T11:04:55.739Z,984.80
2017-11-05T11:05:55.723Z,984.84
2017-11-05T11:06:55.722Z,984.81
2017-11-05T11:07:55.731Z,984.79
2017-11-05T11:08:55.703Z,984.85
2017-11-05T11:09:55.705Z,984.90
2017-11-05T11:10:55.693Z,984.92
2017-11-05T11:11:55.693Z,984.92
2017-11-05T11:12:55.684Z,984.94
2017-11-05T11:13:55.674Z,984.95
2017-11-05T11:14:55.656Z,984.94
2017-11-05T11:15:55.661Z,984.98
2017-11-05T11:16:55.648Z,984.99
2017-11-05T11:17:55.653Z,985.01
2017-11-05T11:18:55.642Z,984.99
2017-11-05T11:19:55.650Z,984.97
2017-11-05T11:20:55.631Z,984.98
2017-11-05T11:21:55.626Z,985.03
2017-11-05T11:22:55.630Z,984.98
2017-11-05T11:23:55.605Z,984.99
2017-11-05T11:24:55.605Z,984.96
2017-11-05T11:25:55.594Z,984.95
2017-11-05T11:26:55.596Z,984.96
2017-11-05T11:27:55.581Z,984.94
2017-11-05T11:28:55.576Z,984.98
2017-11-05T11:29:55.575Z,984.97
2017-11-05T11:30:55.640Z,984.93
2017-11-05T11:31:55.561Z,984.91
2017-11-05T11:32:55.553Z,984.95
2017-11-05T11:33:55.548Z,984.90
2017-11-05T11:34:55.551Z,984.92
2017-11-05T11:35:55.548Z,984.95
2017-11-05T11:36:55.539Z,984.96
2017-11-05T11:37:55.537Z,984.98
2017-11-05T11:38:55.515Z,984.95
2017-11-05T11:39:55.510Z,984.99
2017-11-05T11:40:55.510Z,984.98
2017-11-05T11:41:55.504Z,985.01
2017-11-05T11:42:55.505Z,985.01
2017-11-05T11:43:55.527Z,985.01
2017-11-05T11:44:55.477Z,985.01
2017-11-05T11:45:55.468Z,985.05
2017-11-05T11:46:55.465Z,985.05
2017-11-05T11:47:55.467Z,985.04
2017-11-05T11:48:55.459Z,985.02
2017-11-05T11:49:55.441Z,985.09
2017-11-05T11:50:55.452Z,985.06
2017-11-05T11:51:55.439Z,985.11
2017-11-05T11:52:55.432Z,985.09
2017-11-05T11:53:55.422Z,985.13
2017-11-05T11:54:55.413Z,985.17
2017-11-05T11:55:55.412Z,985.15
2017-11-05T11:56:55.408Z,985.17
2017-11-05T11:57:55.396Z,985.20
2017-11-05T11:58:55.389Z,985.24
2017-11-05T11:59:55.384Z,985.24
2017-11-05T12:00:55.372Z,985.23
2017-11-05T12:01:55.373Z,985.28
2017-11-05T12:02:55.375Z,985.29
2017-11-05T12:03:55.360Z,985.29
2017-11-05T12:04:55.373Z,985.28
2017-11-05T12:05:55.384Z,985.30
2017-11-05T12:06:55.349Z,985.32
2017-11-05T12:07:55.334Z,985.29
2017-11-05T12:08:55.346Z,985.37
2017-11-05T12:09:55.326Z,985.36
2017-11-05T12:10:55.343Z,985.32
2017-11-05T12:11:55.317Z,985.33
2017-11-05T12:12:55.300Z,985.35
2017-11-05T12:13:55.303Z,985.37
2017-11-05T12:14:55.287Z,985.36
2017-11-05T12:15:55.284Z,985.35
2017-11-05T12:16:55.287Z,985.37
2017-11-05T12:17:55.272Z,985.41
2017-11-05T12:18:55.276Z,985.46
2017-11-05T12:19:55.258Z,985.45
2017-11-05T12:20:55.248Z,985.47
2017-11-05T12:21:55.244Z,985.46
2017-11-05T12:22:55.243Z,985.51
2017-11-05T12:23:55.235Z,985.51
2017-11-05T12:24:55.227Z,985.47
2017-11-05T12:25:55.223Z,985.51
2017-11-05T12:26:55.217Z,985.51
2017-11-05T12:27:55.213Z,985.50
2017-11-05T12:28:55.204Z,985.45
2017-11-05T12:29:55.201Z,985.43
2017-11-05T12:30:55.187Z,985.42
2017-11-05T12:31:55.179Z,985.40
2017-11-05T12:32:55.184Z,985.37
2017-11-05T12:33:55.175Z,985.41
2017-11-05T12:34:55.170Z,985.40
2017-11-05T12:35:55.163Z,985.42
2017-11-05T12:36:55.183Z,985.37
2017-11-05T12:37:55.150Z,985.39
2017-11-05T12:38:55.146Z,985.42
2017-11-05T12:39:55.138Z,985.44
2017-11-05T12:40:55.127Z,985.49
2017-11-05T12:41:55.122Z,985.53
2017-11-05T12:42:55.123Z,985.52
2017-11-05T12:43:55.122Z,985.51
2017-11-05T12:44:55.100Z,985.54
2017-11-05T12:45:55.102Z,985.55
2017-11-05T12:46:55.092Z,985.57
2017-11-05T12:47:55.084Z,985.61
2017-11-05T12:48:55.080Z,985.58
2017-11-05T12:49:55.073Z,985.57
2017-11-05T12:50:55.073Z,985.56
2017-11-05T12:51:55.083Z,985.59
2017-11-05T12:52:55.054Z,985.65
2017-11-05T12:53:55.044Z,985.59
2017-11-05T12:54:55.049Z,985.63
2017-11-05T12:55:55.036Z,985.59
2017-11-05T12:56:55.406Z,985.64
2017-11-05T12:57:55.023Z,985.62
2017-11-05T12:58:55.033Z,985.67
2017-11-05T12:59:55.015Z,985.67
2017-11-05T13:00:55.011Z,985.71
2017-11-05T13:01:54.989Z,985.77
2017-11-05T13:02:54.991Z,985.71
2017-11-05T13:03:55.667Z,985.77
2017-11-05T13:04:54.978Z,985.80
2017-11-05T13:05:54.987Z,985.79
2017-11-05T13:06:54.973Z,985.85
2017-11-05T13:07:54.963Z,985.84
2017-11-05T13:08:54.956Z,985.86
2017-11-05T13:09:54.952Z,985.85
2017-11-05T13:10:54.939Z,985.85
2017-11-05T13:11:54.935Z,985.81
2017-11-05T13:12:54.929Z,985.82
2017-11-05T13:13:54.980Z,985.85
2017-11-05T13:14:54.933Z,985.86
2017-11-05T13:15:54.919Z,985.92
2017-11-05T13:16:54.905Z,985.93
2017-11-05T13:17:54.900Z,985.92
2017-11-05T13:18:54.891Z,985.98
2017-11-05T13:19:54.881Z,985.97
2017-11-05T13:20:54.882Z,985.97
2017-11-05T13:21:54.866Z,985.94
2017-11-05T13:22:54.876Z,985.98
2017-11-05T13:23:54.862Z,986.01
2017-11-05T13:24:54.859Z,985.96
2017-11-05T13:25:54.848Z,986.01
2017-11-05T13:26:54.846Z,986.00
2017-11-05T13:27:55.912Z,986.00
2017-11-05T13:28:54.831Z,986.07
2017-11-05T13:29:54.843Z,986.13
2017-11-05T13:30:54.816Z,986.23
2017-11-05T13:31:54.826Z,986.19
2017-11-05T13:32:54.803Z,986.18
2017-11-05T13:33:54.803Z,986.22
2017-11-05T13:34:54.798Z,986.26
2017-11-05T13:35:54.800Z,986.26
2017-11-05T13:36:54.777Z,986.32
2017-11-05T13:37:54.791Z,986.31
2017-11-05T13:38:54.793Z,986.28
2017-11-05T13:39:54.777Z,986.28
2017-11-05T13:40:54.755Z,986.34
2017-11-05T13:41:54.750Z,986.32
2017-11-05T13:42:54.742Z,986.38
2017-11-05T13:43:54.735Z,986.34
2017-11-05T13:44:54.733Z,986.40
2017-11-05T13:45:54.730Z,986.40
2017-11-05T13:46:54.716Z,986.41
2017-11-05T13:47:54.716Z,986.45
2017-11-05T13:48:54.699Z,986.49
2017-11-05T13:49:54.696Z,986.46
2017-11-05T13:50:54.710Z,986.47
2017-11-05T13:51:54.708Z,986.51
2017-11-05T13:52:54.681Z,986.49
2017-11-05T13:53:54.669Z,986.54
2017-11-05T13:54:54.670Z,986.57
2017-11-05T13:55:54.660Z,986.59
2017-11-05T13:56:54.678Z,986.60
2017-11-05T13:57:54.664Z,986.61
2017-11-05T13:58:54.741Z,986.63
2017-11-05T13:59:54.635Z,986.66
2017-11-05T14:00:54.639Z,986.63
2017-11-05T14:01:54.632Z,986.67
2017-11-05T14:02:54.612Z,986.67
2017-11-05T14:03:54.616Z,986.70
2017-11-05T14:04:54.603Z,986.72
2017-11-05T14:05:54.607Z,986.75
2017-11-05T14:06:54.590Z,986.74
2017-11-05T14:07:54.586Z,986.71
2017-11-05T14:08:54.579Z,986.74
2017-11-05T14:09:54.571Z,986.74
2017-11-05T14:10:54.582Z,986.78
2017-11-05T14:11:54.562Z,986.74
2017-11-05T14:12:54.560Z,986.75
2017-11-05T14:13:54.550Z,986.82
2017-11-05T14:14:54.541Z,986.83
2017-11-05T14:15:54.539Z,986.77
2017-11-05T14:16:54.529Z,986.80
2017-11-05T14:17:54.522Z,986.87
2017-11-05T14:18:54.518Z,986.88
2017-11-05T14:19:54.508Z,986.90
2017-11-05T14:20:54.503Z,986.94
2017-11-05T14:21:54.507Z,986.96
2017-11-05T14:22:54.491Z,986.98
2017-11-05T14:23:54.486Z,987.00
2017-11-05T14:24:54.476Z,987.04
2017-11-05T14:25:54.472Z,987.06
2017-11-05T14:26:54.464Z,987.13
2017-11-05T14:27:54.458Z,987.13
2017-11-05T14:28:54.454Z,987.16
2017-11-05T14:29:54.450Z,987.23
2017-11-05T14:30:54.441Z,987.23
2017-11-05T14:31:54.430Z,987.26
2017-11-05T14:32:54.427Z,987.28
2017-11-05T14:33:54.434Z,987.32
2017-11-05T14:34:54.411Z,987.33
2017-11-05T14:35:54.405Z,987.37
2017-11-05T14:36:54.407Z,987.41
2017-11-05T14:37:54.392Z,987.44
2017-11-05T14:38:54.431Z,987.46
2017-11-05T14:39:54.379Z,987.47
2017-11-05T14:40:54.381Z,987.49
2017-11-05T14:41:54.367Z,987.54
2017-11-05T14:42:54.617Z,987.61
2017-11-05T14:43:54.353Z,987.60
2017-11-05T14:44:54.350Z,987.64
2017-11-05T14:45:54.343Z,987.69
2017-11-05T14:46:54.342Z,987.69
2017-11-05T14:47:54.330Z,987.75
2017-11-05T14:48:54.319Z,987.72
2017-11-05T14:49:54.314Z,987.78
2017-11-05T14:50:54.310Z,987.81
2017-11-05T14:51:54.302Z,987.90
2017-11-05T14:52:54.302Z,987.89
2017-11-05T14:53:54.291Z,987.90
2017-11-05T14:54:54.285Z,987.95
2017-11-05T14:55:54.289Z,987.94
2017-11-05T14:56:54.279Z,987.93
2017-11-05T14:57:54.276Z,987.94
2017-11-05T14:58:54.263Z,987.98
2017-11-05T14:59:54.280Z,988.02
2017-11-05T15:00:54.248Z,988.05
2017-11-05T15:01:54.239Z,988.11
2017-11-05T15:02:54.234Z,988.14
2017-11-05T15:03:54.235Z,988.20
2017-11-05T15:04:54.219Z,988.24
2017-11-05T15:05:54.216Z,988.28
2017-11-05T15:06:54.214Z,988.28
2017-11-05T15:07:54.201Z,988.30
2017-11-05T15:08:54.196Z,988.33
2017-11-05T15:09:54.189Z,988.34
2017-11-05T15:10:54.181Z,988.37
2017-11-05T15:11:54.177Z,988.40
2017-11-05T15:12:54.170Z,988.41
2017-11-05T15:13:54.173Z,988.46
2017-11-05T15:14:54.160Z,988.47
2017-11-05T15:15:56.184Z,988.54
2017-11-05T15:16:54.142Z,988.51
2017-11-05T15:18:47.050Z,988.50
2017-11-05T15:19:47.032Z,988.49
2017-11-05T15:21:39.916Z,988.54
2017-11-05T15:22:39.895Z,988.54
2017-11-05T15:24:32.772Z,988.58
2017-11-05T15:25:32.764Z,988.59
2017-11-05T15:27:25.644Z,988.61
2017-11-05T15:28:25.621Z,988.62
2017-11-05T15:29:25.619Z,988.66
2017-11-05T15:30:25.612Z,988.64
2017-11-05T15:31:25.607Z,988.65
2017-11-05T15:32:25.601Z,988.66
2017-11-05T15:33:25.595Z,988.63
2017-11-05T15:34:25.594Z,988.68
2017-11-05T15:35:25.589Z,988.67
2017-11-05T15:36:25.576Z,988.68
2017-11-05T15:37:25.568Z,988.67
2017-11-05T15:38:25.562Z,988.64
2017-11-05T15:39:25.556Z,988.69
2017-11-05T15:40:25.546Z,988.68
2017-11-05T15:41:27.207Z,988.68
2017-11-05T15:42:25.537Z,988.67
2017-11-05T15:44:18.432Z,988.65
2017-11-05T15:45:18.413Z,988.65
2017-11-05T15:47:11.308Z,988.61
2017-11-05T15:48:11.286Z,988.67
2017-11-05T15:50:05.152Z,988.60
2017-11-05T15:51:05.142Z,988.55
2017-11-05T15:52:58.041Z,988.56
2017-11-05T15:53:58.009Z,988.52
2017-11-05T15:55:51.094Z,988.48
2017-11-05T15:56:51.068Z,988.50
2017-11-05T15:58:43.973Z,988.50
2017-11-05T15:59:43.938Z,988.53
2017-11-05T16:01:36.827Z,988.55
2017-11-05T16:02:36.806Z,988.56
2017-11-05T16:04:30.256Z,988.52
2017-11-05T16:05:30.237Z,988.50
2017-11-05T16:07:23.984Z,988.52
2017-11-05T16:08:23.960Z,988.55
2017-11-05T16:10:17.339Z,988.57
2017-11-05T16:11:17.327Z,988.59
2017-11-05T16:13:10.216Z,988.61
2017-11-05T16:14:10.192Z,988.61
2017-11-05T16:15:10.191Z,988.62
2017-11-05T16:16:10.180Z,988.60
2017-11-05T16:17:10.177Z,988.58
2017-11-05T16:18:10.169Z,988.59
2017-11-05T16:19:10.163Z,988.61
2017-11-05T16:20:10.155Z,988.62
2017-11-05T16:21:10.150Z,988.62
2017-11-05T16:22:10.144Z,988.61
2017-11-05T16:23:10.138Z,988.62
2017-11-05T16:24:10.131Z,988.67
2017-11-05T16:25:10.127Z,988.66
2017-11-05T16:26:10.119Z,988.72
2017-11-05T16:27:10.110Z,988.75
2017-11-05T16:28:10.108Z,988.75
2017-11-05T16:29:10.101Z,988.75
2017-11-05T16:30:10.103Z,988.80
2017-11-05T16:31:10.091Z,988.79
2017-11-05T16:32:10.090Z,988.82
2017-11-05T16:33:10.076Z,988.82
2017-11-05T16:34:10.070Z,988.79
2017-11-05T16:35:10.061Z,988.83
2017-11-05T16:36:10.063Z,988.81
2017-11-05T16:37:10.053Z,988.87
2017-11-05T16:38:10.080Z,988.86
2017-11-05T16:39:10.036Z,988.91
2017-11-05T16:40:10.110Z,988.95
2017-11-05T16:41:10.633Z,988.94
2017-11-05T16:42:10.016Z,988.96
2017-11-05T16:43:10.016Z,988.97
2017-11-05T16:44:10.004Z,988.96
2017-11-05T16:45:09.998Z,988.98
2017-11-05T16:46:09.992Z,989.00
2017-11-05T16:47:09.987Z,989.05
2017-11-05T16:48:09.981Z,989.04
2017-11-05T16:49:09.976Z,989.08
2017-11-05T16:50:09.968Z,989.09
2017-11-05T16:51:09.961Z,989.14
2017-11-05T16:52:09.957Z,989.10
2017-11-05T16:53:09.955Z,989.20
2017-11-05T16:54:09.947Z,989.21
2017-11-05T16:55:09.941Z,989.24
2017-11-05T16:56:09.934Z,989.27
2017-11-05T16:57:09.919Z,989.33
2017-11-05T16:58:09.914Z,989.32
2017-11-05T16:59:09.920Z,989.31
2017-11-05T17:00:09.924Z,989.37
2017-11-05T17:01:09.900Z,989.38
2017-11-05T17:02:09.890Z,989.39
2017-11-05T17:03:09.885Z,989.42
2017-11-05T17:04:09.891Z,989.39
2017-11-05T17:05:09.872Z,989.41
2017-11-05T17:06:09.867Z,989.45
2017-11-05T17:07:09.862Z,989.46
2017-11-05T17:08:09.858Z,989.48
2017-11-05T17:09:09.845Z,989.54